Austin, TX

12:21 PM CST en Diciembre 18, 2014 (GMT -0600)
Thermal Lab Facility, CSD | Change Station
CLOSE
Current Station
Estación meteorológica personal
Location: Austin, TX
Altura: 600 ft
Estaciones meteorológicas cercanas

Alt 600 ft 30.29 °N, 97.74 °W | Updated 54 seconds ago

Nublado
Nublado
58.5 ° F
Sensación térmica 58.5 ° F
N
0.0
Viento Variable Viento desde Oeste
Gusts 0.0 mph

Hoy
Alta -- | Baja -- ° F
--% Posibilidad de precipitaciones
Ayer
Alta -- | Baja -- ° F
Precip. -- pul
7:21 AM 5:33 PM
Creciente menguante, 13% visible
Presión 30.14 pul
Visibilidad 6.0 Millas
Nubes Nublado 500 ft
Punto de rocío 56 ° F
Humedad 90%
Precipitaciones 0.00 pul
Espesor de la nieve No disponible.
UV 16.0 de una escala de 12
Polen 8.10 de una escala de 12
Calidad del aire No disponible.
Flu Activity No disponible.
METAR KATT 181751Z AUTO 00000KT 6SM BR OVC005 14/13 A3014 RMK AO2 SLP204 T01440128 10144 20094 50001

More Conditions Fewer Conditions

Presión 30.14 pul
Visibilidad 6.0 Millas
Nubes Nublado 500 ft
Punto de rocío 56 ° F
Humedad 90%
Precipitaciones 0.00 pul
Espesor de la nieve No disponible.
UV 16.0 de una escala de 12
Polen 8.10 de una escala de 12
Calidad del aire No disponible.
Flu Activity No disponible.
METAR KATT 181751Z AUTO 00000KT 6SM BR OVC005 14/13 A3014 RMK AO2 SLP204 T01440128 10144 20094 50001

More Conditions Fewer Conditions

Nowcast | as of 11:07 am CST on December 18, 2014

Through 1 PM...patchy light drizzle will continue across portions of south-central Texas with little or no measurable rainfall expected. Patchy fog will continue across portions of central Texas and The Hill Country with visibilities generally 1/2 to 2 miles.

×

10-Day Weather Forecast

Almanac

Astronomía

Dec. 18, 2014 Salida Puesta
Hora real
Crepúsculo civil
Crepúsculo náutico
Crepúsculo astronómico
Luna
Horas de luz
Horas de luz
Tomorrow will be .
, % of the Moon is Illuminated

Extremos de hoy

Máximos del estado Bajos del estado

Community

WunderPhotos

Upload Photos

1,778,973 ¡fotos cargadas!

WunderBlogs® & News

Nearby

Calidad del aire

  Calidad del aire Índice AQ Contaminante
Not available.

Grosos de nieve

Estación Profundido Altura

Actividad de terremotos

Ciudad Distance Mag. Tiempo y dato
Magnitud mínima muestra es 2,5.

Temperaturas de aguas costeras

Lugar Temperatura

Estaciones meteorológicas cercanas